sensor_id;sensor_type;location;lat;lon;timestamp;pressure;altitude;pressure_sealevel;temperature;humidity
21980;BME280;11154;48.558;9.234;2023-09-19T00:00:11;97219.41;;;19.71;100.00
21980;BME280;11154;48.558;9.234;2023-09-19T00:02:13;97222.09;;;19.71;100.00
21980;BME280;11154;48.558;9.234;2023-09-19T00:04:15;97212.13;;;19.71;100.00
21980;BME280;11154;48.558;9.234;2023-09-19T00:06:16;97216.47;;;19.72;100.00
21980;BME280;11154;48.558;9.234;2023-09-19T00:08:18;97212.13;;;19.71;100.00
21980;BME280;11154;48.558;9.234;2023-09-19T00:10:22;97218.59;;;19.70;100.00
21980;BME280;11154;48.558;9.234;2023-09-19T00:12:24;97220.22;;;19.71;100.00
21980;BME280;11154;48.558;9.234;2023-09-19T00:14:26;97220.44;;;19.70;100.00
21980;BME280;11154;48.558;9.234;2023-09-19T00:16:29;97221.06;;;19.72;100.00
21980;BME280;11154;48.558;9.234;2023-09-19T00:18:33;97222.91;;;19.71;100.00
21980;BME280;11154;48.558;9.234;2023-09-19T00:20:35;97219.16;;;19.72;100.00
21980;BME280;11154;48.558;9.234;2023-09-19T00:22:39;97224.56;;;19.72;100.00
21980;BME280;11154;48.558;9.234;2023-09-19T00:24:41;97229.38;;;19.70;100.00
21980;BME280;11154;48.558;9.234;2023-09-19T00:26:42;97219.63;;;19.69;100.00
21980;BME280;11154;48.558;9.234;2023-09-19T00:28:46;97224.00;;;19.70;100.00
21980;BME280;11154;48.558;9.234;2023-09-19T00:30:48;97216.94;;;19.69;100.00
21980;BME280;11154;48.558;9.234;2023-09-19T00:32:52;97209.66;;;19.70;100.00
21980;BME280;11154;48.558;9.234;2023-09-19T00:34:54;97222.34;;;19.69;100.00
21980;BME280;11154;48.558;9.234;2023-09-19T00:36:56;97224.00;;;19.70;100.00
21980;BME280;11154;48.558;9.234;2023-09-19T00:38:57;97207.78;;;19.70;100.00
21980;BME280;11154;48.558;9.234;2023-09-19T00:40:58;97213.78;;;19.72;100.00
21980;BME280;11154;48.558;9.234;2023-09-19T00:43:01;97212.97;;;19.72;100.00
21980;BME280;11154;48.558;9.234;2023-09-19T00:45:02;97210.84;;;19.74;100.00
21980;BME280;11154;48.558;9.234;2023-09-19T00:47:05;97210.63;;;19.75;100.00
21980;BME280;11154;48.558;9.234;2023-09-19T00:49:08;97214.38;;;19.74;100.00
21980;BME280;11154;48.558;9.234;2023-09-19T00:51:10;97210.63;;;19.75;100.00
21980;BME280;11154;48.558;9.234;2023-09-19T00:53:15;97214.63;;;19.73;100.00
21980;BME280;11154;48.558;9.234;2023-09-19T00:55:18;97216.22;;;19.74;100.00
21980;BME280;11154;48.558;9.234;2023-09-19T00:57:20;97217.69;;;19.76;100.00
21980;BME280;11154;48.558;9.234;2023-09-19T00:59:22;97226.34;;;19.78;100.00
21980;BME280;11154;48.558;9.234;2023-09-19T01:01:24;97215.56;;;19.78;100.00
21980;BME280;11154;48.558;9.234;2023-09-19T01:03:25;97211.91;;;19.73;100.00
21980;BME280;11154;48.558;9.234;2023-09-19T01:05:28;97216.94;;;19.69;100.00
21980;BME280;11154;48.558;9.234;2023-09-19T01:07:31;97220.06;;;19.66;100.00
21980;BME280;11154;48.558;9.234;2023-09-19T01:09:34;97224.84;;;19.64;100.00
21980;BME280;11154;48.558;9.234;2023-09-19T01:11:38;97222.38;;;19.63;100.00
21980;BME280;11154;48.558;9.234;2023-09-19T01:13:48;97226.97;;;19.62;100.00
21980;BME280;11154;48.558;9.234;2023-09-19T01:15:59;97229.28;;;19.59;100.00
21980;BME280;11154;48.558;9.234;2023-09-19T01:18:13;97237.16;;;19.60;100.00
21980;BME280;11154;48.558;9.234;2023-09-19T01:20:27;97229.28;;;19.59;100.00
21980;BME280;11154;48.558;9.234;2023-09-19T01:22:39;97226.75;;;19.64;100.00
21980;BME280;11154;48.558;9.234;2023-09-19T01:27:44;97228.78;;;19.68;100.00
21980;BME280;11154;48.558;9.234;2023-09-19T01:30:06;97238.16;;;19.66;100.00
21980;BME280;11154;48.558;9.234;2023-09-19T01:32:08;97233.56;;;19.66;100.00
21980;BME280;11154;48.558;9.234;2023-09-19T01:34:11;97230.88;;;19.66;100.00
21980;BME280;11154;48.558;9.234;2023-09-19T01:36:12;97228.78;;;19.68;100.00
21980;BME280;11154;48.558;9.234;2023-09-19T01:38:13;97232.50;;;19.67;100.00
21980;BME280;11154;48.558;9.234;2023-09-19T01:40:18;97229.00;;;19.67;100.00
21980;BME280;11154;48.558;9.234;2023-09-19T01:42:28;97232.50;;;19.67;100.00
21980;BME280;11154;48.558;9.234;2023-09-19T01:44:40;97223.59;;;19.67;100.00
21980;BME280;11154;48.558;9.234;2023-09-19T01:46:45;97243.91;;;19.69;100.00
21980;BME280;11154;48.558;9.234;2023-09-19T01:48:54;97243.53;;;19.66;100.00
21980;BME280;11154;48.558;9.234;2023-09-19T01:51:00;97239.19;;;19.65;100.00
21980;BME280;11154;48.558;9.234;2023-09-19T01:53:05;97253.50;;;19.65;100.00
21980;BME280;11154;48.558;9.234;2023-09-19T01:55:10;97258.88;;;19.65;100.00
21980;BME280;11154;48.558;9.234;2023-09-19T01:57:27;97257.22;;;19.64;100.00
21980;BME280;11154;48.558;9.234;2023-09-19T01:59:36;97257.22;;;19.64;100.00
21980;BME280;11154;48.558;9.234;2023-09-19T02:01:42;97267.22;;;19.64;100.00
21980;BME280;11154;48.558;9.234;2023-09-19T02:03:47;97274.69;;;19.62;100.00
21980;BME280;11154;48.558;9.234;2023-09-19T02:05:50;97275.53;;;19.62;100.00
21980;BME280;11154;48.558;9.234;2023-09-19T02:07:54;97267.44;;;19.62;100.00
21980;BME280;11154;48.558;9.234;2023-09-19T02:09:55;97270.97;;;19.63;100.00
21980;BME280;11154;48.558;9.234;2023-09-19T02:11:57;97280.47;;;19.65;100.00
21980;BME280;11154;48.558;9.234;2023-09-19T02:13:59;97272.38;;;19.65;100.00
21980;BME280;11154;48.558;9.234;2023-09-19T02:16:01;97289.69;;;19.58;100.00
21980;BME280;11154;48.558;9.234;2023-09-19T02:18:04;97280.03;;;19.51;100.00
21980;BME280;11154;48.558;9.234;2023-09-19T02:20:09;97280.69;;;19.46;100.00
21980;BME280;11154;48.558;9.234;2023-09-19T02:22:14;97293.13;;;19.47;100.00
21980;BME280;11154;48.558;9.234;2023-09-19T02:24:16;97295.22;;;19.45;100.00
21980;BME280;11154;48.558;9.234;2023-09-19T02:26:19;97298.72;;;19.46;100.00
21980;BME280;11154;48.558;9.234;2023-09-19T02:28:21;97294.84;;;19.42;100.00
21980;BME280;11154;48.558;9.234;2023-09-19T02:30:22;97293.19;;;19.41;100.00
21980;BME280;11154;48.558;9.234;2023-09-19T02:32:25;97298.56;;;19.41;100.00
21980;BME280;11154;48.558;9.234;2023-09-19T02:34:27;97299.19;;;19.43;100.00
21980;BME280;11154;48.558;9.234;2023-09-19T02:36:30;97291.84;;;19.50;100.00
21980;BME280;11154;48.558;9.234;2023-09-19T02:38:31;97293.06;;;19.54;100.00
21980;BME280;11154;48.558;9.234;2023-09-19T02:40:33;97292.81;;;19.55;100.00
21980;BME280;11154;48.558;9.234;2023-09-19T02:42:35;97300.72;;;19.57;100.00
21980;BME280;11154;48.558;9.234;2023-09-19T02:44:37;97294.94;;;19.53;100.00
21980;BME280;11154;48.558;9.234;2023-09-19T02:46:40;97284.34;;;19.52;100.00
21980;BME280;11154;48.558;9.234;2023-09-19T02:48:42;97291.84;;;19.50;100.00
21980;BME280;11154;48.558;9.234;2023-09-19T02:50:44;97295.59;;;19.49;100.00
21980;BME280;11154;48.558;9.234;2023-09-19T02:52:48;97303.69;;;19.49;100.00
21980;BME280;11154;48.558;9.234;2023-09-19T02:54:49;97303.91;;;19.47;100.00
21980;BME280;11154;48.558;9.234;2023-09-19T02:56:51;97309.31;;;19.47;100.00
21980;BME280;11154;48.558;9.234;2023-09-19T02:58:54;97300.19;;;19.48;100.00
21980;BME280;11154;48.558;9.234;2023-09-19T03:00:56;97299.56;;;19.46;100.00
21980;BME280;11154;48.558;9.234;2023-09-19T03:02:58;97303.31;;;19.45;100.00
21980;BME280;11154;48.558;9.234;2023-09-19T03:05:00;97305.38;;;19.43;100.00
21980;BME280;11154;48.558;9.234;2023-09-19T03:07:01;97303.53;;;19.44;100.00
21980;BME280;11154;48.558;9.234;2023-09-19T03:09:06;97308.94;;;19.44;100.00
21980;BME280;11154;48.558;9.234;2023-09-19T03:11:12;97305.19;;;19.45;100.00
21980;BME280;11154;48.558;9.234;2023-09-19T03:13:16;97308.69;;;19.45;100.00
21980;BME280;11154;48.558;9.234;2023-09-19T03:15:18;97305.19;;;19.45;100.00
21980;BME280;11154;48.558;9.234;2023-09-19T03:17:18;97312.59;;;19.49;100.00
21980;BME280;11154;48.558;9.234;2023-09-19T03:19:21;97310.97;;;19.48;100.00
21980;BME280;11154;48.558;9.234;2023-09-19T03:21:23;97315.53;;;19.48;100.00
21980;BME280;11154;48.558;9.234;2023-09-19T03:23:26;97316.13;;;19.50;100.00
21980;BME280;11154;48.558;9.234;2023-09-19T03:25:29;97312.41;;;19.51;100.00
21980;BME280;11154;48.558;9.234;2023-09-19T03:27:30;97311.31;;;19.52;100.00
21980;BME280;11154;48.558;9.234;2023-09-19T03:29:32;97312.97;;;19.53;100.00
21980;BME280;11154;48.558;9.234;2023-09-19T03:31:33;97310.91;;;19.55;100.00
21980;BME280;11154;48.558;9.234;2023-09-19T03:33:37;97304.06;;;19.52;100.00
21980;BME280;11154;48.558;9.234;2023-09-19T03:35:39;97306.38;;;19.49;100.00
21980;BME280;11154;48.558;9.234;2023-09-19T03:37:41;97309.69;;;19.51;100.00
21980;BME280;11154;48.558;9.234;2023-09-19T03:39:43;97311.78;;;19.49;100.00
21980;BME280;11154;48.558;9.234;2023-09-19T03:41:46;97318.22;;;19.48;100.00
21980;BME280;11154;48.558;9.234;2023-09-19T03:43:48;97321.16;;;19.46;100.00
21980;BME280;11154;48.558;9.234;2023-09-19T03:45:49;97319.91;;;19.42;100.00
21980;BME280;11154;48.558;9.234;2023-09-19T03:47:51;97316.41;;;19.42;100.00
21980;BME280;11154;48.558;9.234;2023-09-19T03:49:52;97316.41;;;19.42;100.00
21980;BME280;11154;48.558;9.234;2023-09-19T03:51:54;97308.94;;;19.44;100.00
21980;BME280;11154;48.558;9.234;2023-09-19T03:53:55;97310.34;;;19.46;100.00
21980;BME280;11154;48.558;9.234;2023-09-19T03:55:57;97313.28;;;19.45;100.00
21980;BME280;11154;48.558;9.234;2023-09-19T03:58:01;97318.22;;;19.48;100.00
21980;BME280;11154;48.558;9.234;2023-09-19T04:00:05;97320.91;;;19.48;100.00
21980;BME280;11154;48.558;9.234;2023-09-19T04:02:11;97322.13;;;19.52;100.00
21980;BME280;11154;48.558;9.234;2023-09-19T04:04:22;97331.28;;;19.51;100.00
21980;BME280;11154;48.558;9.234;2023-09-19T04:06:25;97322.13;;;19.52;100.00
21980;BME280;11154;48.558;9.234;2023-09-19T04:08:27;97324.22;;;19.50;100.00
21980;BME280;11154;48.558;9.234;2023-09-19T04:10:29;97324.22;;;19.50;100.00
21980;BME280;11154;48.558;9.234;2023-09-19T04:12:31;97316.13;;;19.50;100.00
21980;BME280;11154;48.558;9.234;2023-09-19T04:14:34;97321.06;;;19.53;100.00
21980;BME280;11154;48.558;9.234;2023-09-19T04:16:36;97315.09;;;19.51;100.00
21980;BME280;11154;48.558;9.234;2023-09-19T04:18:39;97316.94;;;19.50;100.00
21980;BME280;11154;48.558;9.234;2023-09-19T04:20:40;97312.59;;;19.49;100.00
21980;BME280;11154;48.558;9.234;2023-09-19T04:22:41;97313.66;;;19.48;100.00
21980;BME280;11154;48.558;9.234;2023-09-19T04:24:43;97307.66;;;19.46;100.00
21980;BME280;11154;48.558;9.234;2023-09-19T04:26:45;97306.81;;;19.46;100.00
21980;BME280;11154;48.558;9.234;2023-09-19T04:28:47;97312.22;;;19.46;100.00
21980;BME280;11154;48.558;9.234;2023-09-19T04:30:50;97306.81;;;19.46;100.00
21980;BME280;11154;48.558;9.234;2023-09-19T04:32:51;97314.53;;;19.42;100.00
21980;BME280;11154;48.558;9.234;2023-09-19T04:34:53;97321.19;;;19.40;100.00
21980;BME280;11154;48.558;9.234;2023-09-19T04:37:00;97326.81;;;19.38;100.00
21980;BME280;11154;48.558;9.234;2023-09-19T04:39:02;97332.84;;;19.34;100.00
21980;BME280;11154;48.558;9.234;2023-09-19T04:41:06;97327.69;;;19.32;100.00
21980;BME280;11154;48.558;9.234;2023-09-19T04:43:08;97336.00;;;19.31;100.00
21980;BME280;11154;48.558;9.234;2023-09-19T04:45:10;97335.16;;;19.30;100.00
21980;BME280;11154;48.558;9.234;2023-09-19T04:47:13;97332.69;;;19.29;100.00
21980;BME280;11154;48.558;9.234;2023-09-19T04:49:16;97328.19;;;19.23;100.00
21980;BME280;11154;48.558;9.234;2023-09-19T04:51:18;97328.84;;;19.18;100.00
21980;BME280;11154;48.558;9.234;2023-09-19T04:53:21;97330.94;;;19.16;100.00
21980;BME280;11154;48.558;9.234;2023-09-19T04:55:22;97335.88;;;19.19;100.00
21980;BME280;11154;48.558;9.234;2023-09-19T04:57:24;97340.25;;;19.20;100.00
21980;BME280;11154;48.558;9.234;2023-09-19T04:59:26;97334.22;;;19.18;100.00
21980;BME280;11154;48.558;9.234;2023-09-19T05:01:28;97335.66;;;19.21;100.00
21980;BME280;11154;48.558;9.234;2023-09-19T05:03:30;97336.28;;;19.23;100.00
21980;BME280;11154;48.558;9.234;2023-09-19T05:05:32;97334.19;;;19.25;100.00
21980;BME280;11154;48.558;9.234;2023-09-19T05:07:35;97330.66;;;19.24;100.00
21980;BME280;11154;48.558;9.234;2023-09-19T05:09:36;97333.34;;;19.24;100.00
21980;BME280;11154;48.558;9.234;2023-09-19T05:11:38;97339.59;;;19.25;100.00
21980;BME280;11154;48.558;9.234;2023-09-19T05:13:39;97350.38;;;19.25;100.00
21980;BME280;11154;48.558;9.234;2023-09-19T05:15:41;97340.19;;;19.27;100.00
21980;BME280;11154;48.558;9.234;2023-09-19T05:17:41;97336.66;;;19.26;100.00
21980;BME280;11154;48.558;9.234;2023-09-19T05:19:45;97333.97;;;19.26;100.00
21980;BME280;11154;48.558;9.234;2023-09-19T05:21:46;97345.78;;;19.25;100.00
21980;BME280;11154;48.558;9.234;2023-09-19T05:23:51;97339.97;;;19.28;100.00
21980;BME280;11154;48.558;9.234;2023-09-19T05:25:53;97349.91;;;19.28;100.00
21980;BME280;11154;48.558;9.234;2023-09-19T05:27:57;97346.81;;;19.31;100.00
21980;BME280;11154;48.558;9.234;2023-09-19T05:29:59;97343.88;;;19.32;100.00
21980;BME280;11154;48.558;9.234;2023-09-19T05:32:00;97349.50;;;19.31;100.00
21980;BME280;11154;48.558;9.234;2023-09-19T05:34:01;97358.41;;;19.31;100.00
21980;BME280;11154;48.558;9.234;2023-09-19T05:36:05;97359.25;;;19.32;100.00
21980;BME280;11154;48.558;9.234;2023-09-19T05:38:10;97359.25;;;19.32;100.00
21980;BME280;11154;48.558;9.234;2023-09-19T05:40:13;97365.22;;;19.34;100.00
21980;BME280;11154;48.558;9.234;2023-09-19T05:42:16;97365.69;;;19.31;100.00
21980;BME280;11154;48.558;9.234;2023-09-19T05:44:17;97368.97;;;19.33;100.00
21980;BME280;11154;48.558;9.234;2023-09-19T05:46:19;97374.34;;;19.33;100.00
21980;BME280;11154;48.558;9.234;2023-09-19T05:48:21;97381.41;;;19.34;100.00
21980;BME280;11154;48.558;9.234;2023-09-19T05:50:23;97373.31;;;19.34;100.00
21980;BME280;11154;48.558;9.234;2023-09-19T05:52:26;97380.13;;;19.36;100.00
21980;BME280;11154;48.558;9.234;2023-09-19T05:54:28;97380.75;;;19.38;100.00
21980;BME280;11154;48.558;9.234;2023-09-19T05:56:29;97401.50;;;19.38;100.00
21980;BME280;11154;48.558;9.234;2023-09-19T05:58:30;97393.22;;;19.33;100.00
21980;BME280;11154;48.558;9.234;2023-09-19T06:00:32;97390.16;;;19.29;100.00
21980;BME280;11154;48.558;9.234;2023-09-19T06:02:33;97400.56;;;19.26;100.00
21980;BME280;11154;48.558;9.234;2023-09-19T06:04:36;97398.06;;;19.24;100.00
21980;BME280;11154;48.558;9.234;2023-09-19T06:06:40;97404.88;;;19.27;100.00
21980;BME280;11154;48.558;9.234;2023-09-19T06:08:44;97400.13;;;19.29;100.00
21980;BME280;11154;48.558;9.234;2023-09-19T06:10:46;97407.78;;;19.32;100.00
21980;BME280;11154;48.558;9.234;2023-09-19T06:12:49;97409.41;;;19.33;100.00
21980;BME280;11154;48.558;9.234;2023-09-19T06:14:50;97415.19;;;19.36;100.00
21980;BME280;11154;48.558;9.234;2023-09-19T06:16:52;97416.47;;;19.34;100.00
21980;BME280;11154;48.558;9.234;2023-09-19T06:18:54;97420.19;;;19.33;100.00
21980;BME280;11154;48.558;9.234;2023-09-19T06:20:56;97420.81;;;19.35;100.00
21980;BME280;11154;48.558;9.234;2023-09-19T06:22:58;97422.47;;;19.36;100.00
21980;BME280;11154;48.558;9.234;2023-09-19T06:25:03;97432.22;;;19.37;100.00
21980;BME280;11154;48.558;9.234;2023-09-19T06:27:05;97444.28;;;19.34;100.00
21980;BME280;11154;48.558;9.234;2023-09-19T06:29:07;97424.13;;;19.37;100.00
21980;BME280;11154;48.558;9.234;2023-09-19T06:31:09;97433.88;;;19.38;100.00
21980;BME280;11154;48.558;9.234;2023-09-19T06:33:10;97441.53;;;19.41;100.00
21980;BME280;11154;48.558;9.234;2023-09-19T06:35:15;97435.09;;;19.42;100.00
21980;BME280;11154;48.558;9.234;2023-09-19T06:37:16;97441.69;;;19.46;100.00
21980;BME280;11154;48.558;9.234;2023-09-19T06:39:18;97445.22;;;19.46;100.00
21980;BME280;11154;48.558;9.234;2023-09-19T06:41:24;97450.84;;;19.45;100.00
21980;BME280;11154;48.558;9.234;2023-09-19T06:43:25;97450.63;;;19.46;100.00
21980;BME280;11154;48.558;9.234;2023-09-19T06:45:27;97448.72;;;19.47;100.00
21980;BME280;11154;48.558;9.234;2023-09-19T06:47:29;97448.31;;;19.50;100.00
21980;BME280;11154;48.558;9.234;2023-09-19T06:49:31;97464.88;;;19.53;100.00
21980;BME280;11154;48.558;9.234;2023-09-19T06:51:32;97470.28;;;19.53;100.00
21980;BME280;11154;48.558;9.234;2023-09-19T06:53:36;97477.34;;;19.54;100.00
21980;BME280;11154;48.558;9.234;2023-09-19T06:55:38;97477.34;;;19.54;100.00
21980;BME280;11154;48.558;9.234;2023-09-19T06:57:41;97476.06;;;19.57;100.00
21980;BME280;11154;48.558;9.234;2023-09-19T06:59:43;97478.31;;;19.59;100.00
21980;BME280;11154;48.558;9.234;2023-09-19T07:01:45;97476.25;;;19.61;100.00
21980;BME280;11154;48.558;9.234;2023-09-19T07:03:47;97469.81;;;19.62;100.00
21980;BME280;11154;48.558;9.234;2023-09-19T07:05:48;97467.09;;;19.62;100.00
21980;BME280;11154;48.558;9.234;2023-09-19T07:07:50;97476.84;;;19.63;100.00
21980;BME280;11154;48.558;9.234;2023-09-19T07:09:51;97472.66;;;19.67;100.00
21980;BME280;11154;48.558;9.234;2023-09-19T07:11:54;97480.91;;;19.72;100.00
21980;BME280;11154;48.558;9.234;2023-09-19T07:13:57;97480.53;;;19.69;100.00
21980;BME280;11154;48.558;9.234;2023-09-19T07:15:59;97481.97;;;19.71;100.00
21980;BME280;11154;48.558;9.234;2023-09-19T07:18:01;97478.22;;;19.72;100.00
21980;BME280;11154;48.558;9.234;2023-09-19T07:20:03;97481.53;;;19.74;100.00
21980;BME280;11154;48.558;9.234;2023-09-19T07:22:07;97493.53;;;19.78;100.00
21980;BME280;11154;48.558;9.234;2023-09-19T07:24:09;97486.06;;;19.80;100.00
21980;BME280;11154;48.558;9.234;2023-09-19T07:26:11;97487.09;;;19.79;100.00
21980;BME280;11154;48.558;9.234;2023-09-19T07:28:12;97487.06;;;19.86;100.00
21980;BME280;11154;48.558;9.234;2023-09-19T07:30:15;97483.47;;;19.92;100.00
21980;BME280;11154;48.558;9.234;2023-09-19T07:32:17;97486.19;;;19.92;100.00
21980;BME280;11154;48.558;9.234;2023-09-19T07:34:19;97499.47;;;19.93;100.00
21980;BME280;11154;48.558;9.234;2023-09-19T07:36:22;97502.78;;;19.95;100.00
21980;BME280;11154;48.558;9.234;2023-09-19T07:38:24;97498.19;;;20.02;100.00
21980;BME280;11154;48.558;9.234;2023-09-19T07:40:27;97511.22;;;20.05;100.00
21980;BME280;11154;48.558;9.234;2023-09-19T07:42:29;97503.72;;;20.07;100.00
21980;BME280;11154;48.558;9.234;2023-09-19T07:44:32;97503.50;;;20.09;100.00
21980;BME280;11154;48.558;9.234;2023-09-19T07:46:35;97501.41;;;20.11;100.00
21980;BME280;11154;48.558;9.234;2023-09-19T07:48:36;97496.41;;;20.14;100.00
21980;BME280;11154;48.558;9.234;2023-09-19T07:50:38;97503.22;;;20.17;100.00
21980;BME280;11154;48.558;9.234;2023-09-19T07:52:40;97504.88;;;20.18;100.00
21980;BME280;11154;48.558;9.234;2023-09-19T07:54:41;97512.75;;;20.19;100.00
21980;BME280;11154;48.558;9.234;2023-09-19T07:56:44;97514.19;;;20.22;100.00
21980;BME280;11154;48.558;9.234;2023-09-19T07:58:46;97510.59;;;20.28;100.00
21980;BME280;11154;48.558;9.234;2023-09-19T08:00:47;97518.28;;;20.31;100.00
21980;BME280;11154;48.558;9.234;2023-09-19T08:02:50;97522.78;;;20.36;100.00
21980;BME280;11154;48.558;9.234;2023-09-19T08:04:53;97524.59;;;20.42;100.00
21980;BME280;11154;48.558;9.234;2023-09-19T08:06:54;97522.66;;;20.49;100.00
21980;BME280;11154;48.558;9.234;2023-09-19T08:08:56;97527.22;;;20.49;100.00
21980;BME280;11154;48.558;9.234;2023-09-19T08:11:01;97523.38;;;20.56;100.00
21980;BME280;11154;48.558;9.234;2023-09-19T08:13:02;97519.59;;;20.64;100.00
21980;BME280;11154;48.558;9.234;2023-09-19T08:15:05;97528.09;;;20.67;100.00
21980;BME280;11154;48.558;9.234;2023-09-19T08:17:08;97525.13;;;20.69;100.00
21980;BME280;11154;48.558;9.234;2023-09-19T08:19:11;97529.50;;;20.70;100.00
21980;BME280;11154;48.558;9.234;2023-09-19T08:21:12;97534.06;;;20.69;100.00
21980;BME280;11154;48.558;9.234;2023-09-19T08:23:14;97533.25;;;20.69;100.00
21980;BME280;11154;48.558;9.234;2023-09-19T08:25:17;97532.22;;;20.70;100.00
21980;BME280;11154;48.558;9.234;2023-09-19T08:27:19;97536.56;;;20.71;100.00
21980;BME280;11154;48.558;9.234;2023-09-19T08:29:21;97540.94;;;20.72;100.00
21980;BME280;11154;48.558;9.234;2023-09-19T08:31:27;97543.63;;;20.72;100.00
21980;BME280;11154;48.558;9.234;2023-09-19T08:33:31;97542.56;;;20.73;100.00
21980;BME280;11154;48.558;9.234;2023-09-19T08:35:34;97554.00;;;20.75;100.00
21980;BME280;11154;48.558;9.234;2023-09-19T08:37:36;97548.16;;;20.78;100.00
21980;BME280;11154;48.558;9.234;2023-09-19T08:39:37;97555.00;;;20.80;100.00
21980;BME280;11154;48.558;9.234;2023-09-19T08:41:39;97555.19;;;20.79;100.00
21980;BME280;11154;48.558;9.234;2023-09-19T08:43:41;97555.97;;;20.86;100.00
21980;BME280;11154;48.558;9.234;2023-09-19T08:45:43;97558.66;;;20.86;100.00
21980;BME280;11154;48.558;9.234;2023-09-19T08:47:50;97558.91;;;20.84;100.00
21980;BME280;11154;48.558;9.234;2023-09-19T08:50:03;97561.59;;;20.84;100.00
21980;BME280;11154;48.558;9.234;2023-09-19T08:52:13;97555.75;;;20.87;100.00
21980;BME280;11154;48.558;9.234;2023-09-19T08:54:22;97551.31;;;20.93;100.00
21980;BME280;11154;48.558;9.234;2023-09-19T08:56:29;97552.34;;;20.92;100.00
21980;BME280;11154;48.558;9.234;2023-09-19T08:58:34;97556.94;;;20.91;100.00
21980;BME280;11154;48.558;9.234;2023-09-19T09:00:41;97552.53;;;20.97;100.00
21980;BME280;11154;48.558;9.234;2023-09-19T09:02:44;97551.03;;;21.01;100.00
21980;BME280;11154;48.558;9.234;2023-09-19T09:04:48;97559.59;;;20.98;100.00
21980;BME280;11154;48.558;9.234;2023-09-19T09:06:51;97555.81;;;20.99;100.00
21980;BME280;11154;48.558;9.234;2023-09-19T09:08:55;97555.25;;;20.97;100.00
21980;BME280;11154;48.558;9.234;2023-09-19T09:10:58;97552.97;;;20.94;99.60
21980;BME280;11154;48.558;9.234;2023-09-19T09:12:59;97555.66;;;20.94;99.83
21980;BME280;11154;48.558;9.234;2023-09-19T09:15:01;97557.34;;;20.95;100.00
21980;BME280;11154;48.558;9.234;2023-09-19T09:17:04;97566.34;;;20.89;98.84
21980;BME280;11154;48.558;9.234;2023-09-19T09:19:05;97565.50;;;20.88;97.59
21980;BME280;11154;48.558;9.234;2023-09-19T09:21:07;97564.03;;;20.92;99.65
21980;BME280;11154;48.558;9.234;2023-09-19T09:23:08;97566.34;;;20.89;98.56
21980;BME280;11154;48.558;9.234;2023-09-19T09:25:11;97567.25;;;20.83;96.93
21980;BME280;11154;48.558;9.234;2023-09-19T09:27:13;97569.66;;;20.91;98.90
21980;BME280;11154;48.558;9.234;2023-09-19T09:29:14;97566.97;;;20.91;99.66
21980;BME280;11154;48.558;9.234;2023-09-19T09:31:22;97563.34;;;20.97;99.08
21980;BME280;11154;48.558;9.234;2023-09-19T09:33:24;97565.81;;;20.98;99.11
21980;BME280;11154;48.558;9.234;2023-09-19T09:35:26;97568.66;;;21.03;97.68
21980;BME280;11154;48.558;9.234;2023-09-19T09:37:28;97567.75;;;21.09;97.43
21980;BME280;11154;48.558;9.234;2023-09-19T09:39:31;97577.91;;;21.13;96.32
21980;BME280;11154;48.558;9.234;2023-09-19T09:41:37;97571.47;;;21.14;96.90
21980;BME280;11154;48.558;9.234;2023-09-19T09:43:40;97565.75;;;21.22;99.13
21980;BME280;11154;48.558;9.234;2023-09-19T09:48:40;97566.09;;;21.44;97.54
21980;BME280;11154;48.558;9.234;2023-09-19T09:50:47;97567.25;;;21.54;96.31
21980;BME280;11154;48.558;9.234;2023-09-19T09:52:56;97570.34;;;21.51;91.08
21980;BME280;11154;48.558;9.234;2023-09-19T09:55:06;97571.88;;;21.65;95.09
21980;BME280;11154;48.558;9.234;2023-09-19T09:57:11;97568.25;;;21.71;94.43
21980;BME280;11154;48.558;9.234;2023-09-19T09:59:14;97565.66;;;21.76;93.41
21980;BME280;11154;48.558;9.234;2023-09-19T10:01:18;97560.72;;;21.73;90.78
21980;BME280;11154;48.558;9.234;2023-09-19T10:03:19;97568.97;;;21.78;91.24
21980;BME280;11154;48.558;9.234;2023-09-19T10:05:23;97562.66;;;21.84;89.54
21980;BME280;11154;48.558;9.234;2023-09-19T10:07:41;97551.69;;;21.90;90.25
21980;BME280;11154;48.558;9.234;2023-09-19T10:09:49;97543.38;;;21.92;89.23
21980;BME280;11154;48.558;9.234;2023-09-19T10:12:02;97545.84;;;21.93;87.94
21980;BME280;11154;48.558;9.234;2023-09-19T10:14:07;97549.50;;;21.99;87.98
21980;BME280;11154;48.558;9.234;2023-09-19T10:16:11;97555.63;;;22.06;86.33
21980;BME280;11154;48.558;9.234;2023-09-19T10:18:14;97550.81;;;22.08;87.74
21980;BME280;11154;48.558;9.234;2023-09-19T10:20:18;97555.06;;;22.15;86.55
21980;BME280;11154;48.558;9.234;2023-09-19T10:22:48;97555.66;;;22.17;84.48
21980;BME280;11154;48.558;9.234;2023-09-19T10:24:57;97555.31;;;22.25;84.48
21980;BME280;11154;48.558;9.234;2023-09-19T10:27:01;97553.13;;;22.34;82.43
21980;BME280;11154;48.558;9.234;2023-09-19T10:29:06;97561.38;;;22.39;79.67
21980;BME280;11154;48.558;9.234;2023-09-19T10:31:10;97559.97;;;22.48;82.86
21980;BME280;11154;48.558;9.234;2023-09-19T10:33:15;97563.84;;;22.52;81.23
21980;BME280;11154;48.558;9.234;2023-09-19T10:35:17;97557.97;;;22.54;79.95
21980;BME280;11154;48.558;9.234;2023-09-19T10:37:20;97553.38;;;22.55;81.24
21980;BME280;11154;48.558;9.234;2023-09-19T10:39:30;97561.06;;;22.58;81.96
21980;BME280;11154;48.558;9.234;2023-09-19T10:41:34;97553.16;;;22.56;78.94
21980;BME280;11154;48.558;9.234;2023-09-19T10:43:36;97555.38;;;22.59;80.12
21980;BME280;11154;48.558;9.234;2023-09-19T10:45:41;97549.72;;;22.61;78.59
21980;BME280;11154;48.558;9.234;2023-09-19T10:47:41;97558.81;;;22.66;78.46
21980;BME280;11154;48.558;9.234;2023-09-19T10:49:44;97546.88;;;22.45;75.14
21980;BME280;11154;48.558;9.234;2023-09-19T10:51:47;97549.72;;;22.38;76.37